Time;durP1;ratioP1;P1;durP2;ratioP2;P2;SDS_P1;SDS_P2;PMS_P1;PMS_P2;Temp;Humidity;BMP_temperature;BMP_pressure;BME280_temperature;BME280_humidity;BME280_pressure;Samples;Min_cycle;Max_cycle;Signal;HPM_P1;HPM_P2
2021/12/17 00:05:02;;;;;;;51.43;34.63;;;11.00;99.90;;;;;;5117324;28;20434;-71
2021/12/17 00:07:32;;;;;;;55.60;32.87;;;11.00;99.90;;;;;;5116740;27;20958;-71
2021/12/17 00:10:02;;;;;;;47.57;31.30;;;11.00;99.90;;;;;;5117029;28;20443;-71
2021/12/17 00:12:30;;;;;;;50.47;32.43;;;11.00;99.90;;;;;;5117206;28;20505;-71
2021/12/17 00:14:58;;;;;;;48.00;31.70;;;11.00;99.90;;;;;;5116914;28;20445;-71
2021/12/17 00:17:31;;;;;;;56.30;34.00;;;11.00;99.90;;;;;;5116876;27;20443;-71
2021/12/17 00:20:25;;;;;;;52.23;33.07;;;11.00;99.90;;;;;;5116834;28;20530;-70
2021/12/17 00:50:31;;;;;;;52.23;33.90;;;11.00;99.90;;;;;;5116541;28;20898;-71
2021/12/17 00:52:58;;;;;;;45.57;31.17;;;11.00;99.90;;;;;;5116518;28;20467;-71
2021/12/17 00:55:24;;;;;;;47.90;31.07;;;11.00;99.90;;;;;;5116436;28;20446;-71
2021/12/17 00:57:51;;;;;;;46.17;31.00;;;11.00;99.90;;;;;;5116242;28;20450;-71
2021/12/17 01:00:22;;;;;;;52.93;33.53;;;11.00;99.90;;;;;;5116618;28;20458;-71
2021/12/17 01:02:50;;;;;;;49.17;33.60;;;11.00;99.90;;;;;;5116072;28;20486;-71
2021/12/17 01:05:20;;;;;;;56.73;35.07;;;11.00;99.90;;;;;;5115868;28;20430;-71
2021/12/17 01:07:50;;;;;;;51.67;32.83;;;11.00;99.90;;;;;;5116016;28;20430;-71
2021/12/17 01:10:20;;;;;;;56.83;33.73;;;11.00;99.90;;;;;;5115617;28;20921;-71
2021/12/17 01:12:47;;;;;;;43.80;31.07;;;11.00;99.90;;;;;;5115824;28;20469;-71
2021/12/17 01:15:18;;;;;;;51.73;31.33;;;11.00;99.90;;;;;;5115823;28;20446;-71
2021/12/17 01:17:47;;;;;;;43.20;32.30;;;11.10;99.90;;;;;;5115724;28;20439;-71
2021/12/17 01:20:30;;;;;;;46.93;31.77;;;11.00;99.90;;;;;;5115762;27;20856;-71
2021/12/17 01:23:16;;;;;;;49.00;31.70;;;11.00;99.90;;;;;;5115564;28;20992;-71
2021/12/17 01:35:20;;;;;;;42.63;30.27;;;11.10;99.90;;;;;;5115592;28;20459;-71
2021/12/17 01:37:23;;;;;;;46.97;31.20;;;11.10;99.90;;;;;;5115181;28;20514;-70
2021/12/17 01:40:42;;;;;;;52.00;32.00;;;11.10;99.90;;;;;;5114954;28;20522;-70
2021/12/17 01:42:50;;;;;;;49.43;32.87;;;11.10;99.90;;;;;;5113876;28;20929;-71
2021/12/17 01:45:17;;;;;;;52.27;32.70;;;11.10;99.90;;;;;;5115231;28;20451;-71
2021/12/17 01:47:44;;;;;;;53.93;32.63;;;11.10;99.90;;;;;;5115143;28;20446;-71
2021/12/17 01:56:01;;;;;;;50.50;30.40;;;11.10;99.90;;;;;;5115099;28;20415;-71
2021/12/17 02:01:12;;;;;;;49.40;31.20;;;11.10;99.90;;;;;;5114629;28;20456;-71
2021/12/17 02:03:39;;;;;;;46.20;31.00;;;11.10;99.90;;;;;;5114794;28;20439;-71
2021/12/17 02:06:06;;;;;;;50.00;34.50;;;11.10;99.90;;;;;;5115309;28;20446;-70
2021/12/17 02:08:35;;;;;;;42.93;28.63;;;11.10;99.90;;;;;;5115680;28;20951;-70
2021/12/17 02:19:44;;;;;;;47.17;31.67;;;11.10;99.90;;;;;;5114576;28;20407;-71
2021/12/17 02:22:52;;;;;;;46.57;31.37;;;11.10;99.90;;;;;;5114127;28;21170;-70
2021/12/17 02:31:08;;;;;;;46.07;30.43;;;11.10;99.90;;;;;;5114703;28;20403;-70
2021/12/17 02:33:35;;;;;;;46.80;30.80;;;11.10;99.90;;;;;;5114331;28;20488;-71
2021/12/17 02:36:02;;;;;;;56.60;32.90;;;11.10;99.90;;;;;;5114301;28;20442;-71
2021/12/17 02:38:36;;;;;;;40.30;28.37;;;11.10;99.90;;;;;;5114243;28;20465;-70
2021/12/17 02:46:35;;;;;;;48.13;29.73;;;11.10;99.90;;;;;;5114068;28;20781;-70
2021/12/17 02:49:02;;;;;;;44.53;29.93;;;11.10;99.90;;;;;;5114135;28;20533;-70
2021/12/17 02:51:29;;;;;;;43.67;27.37;;;11.10;99.90;;;;;;5113791;28;20451;-71
2021/12/17 02:53:59;;;;;;;44.70;29.83;;;11.10;99.90;;;;;;5113895;28;20439;-71
2021/12/17 02:56:27;;;;;;;45.23;30.13;;;11.10;99.90;;;;;;5113775;28;20927;-70
2021/12/17 02:58:54;;;;;;;42.30;29.23;;;11.10;99.90;;;;;;5113777;28;20903;-70
2021/12/17 03:01:22;;;;;;;47.33;31.93;;;11.10;99.90;;;;;;5113824;28;20466;-71
2021/12/17 03:03:51;;;;;;;45.50;31.67;;;11.10;99.90;;;;;;5113640;28;20947;-71
2021/12/17 03:06:20;;;;;;;44.03;30.73;;;11.10;99.90;;;;;;5113929;28;20450;-70
2021/12/17 03:08:47;;;;;;;49.73;30.50;;;11.10;99.90;;;;;;5113966;28;20525;-71
2021/12/17 03:11:16;;;;;;;41.30;29.73;;;11.10;99.90;;;;;;5113633;28;20932;-71
2021/12/17 03:13:45;;;;;;;46.97;31.20;;;11.10;99.90;;;;;;5113911;28;20438;-71
2021/12/17 03:16:24;;;;;;;41.97;29.87;;;11.00;99.90;;;;;;5113530;28;20455;-71
2021/12/17 03:19:01;;;;;;;54.23;33.40;;;11.00;99.90;;;;;;5113923;28;20439;-71
2021/12/17 03:24:18;;;;;;;51.80;32.60;;;11.00;99.90;;;;;;5114054;28;20469;-71
2021/12/17 03:26:46;;;;;;;45.53;31.60;;;11.00;99.90;;;;;;5114406;28;20427;-71
2021/12/17 03:29:14;;;;;;;45.80;31.67;;;11.00;99.90;;;;;;5113467;28;20919;-71
2021/12/17 03:31:41;;;;;;;46.87;30.93;;;11.00;99.90;;;;;;5113360;28;20971;-71
2021/12/17 03:34:20;;;;;;;48.07;32.23;;;11.00;99.90;;;;;;5113388;28;20819;-71
2021/12/17 03:36:53;;;;;;;45.30;30.60;;;11.00;99.90;;;;;;5113691;28;20495;-71
2021/12/17 03:39:20;;;;;;;47.70;33.07;;;11.00;99.90;;;;;;5113586;28;20795;-71
2021/12/17 03:41:51;;;;;;;44.67;29.57;;;11.00;99.90;;;;;;5113153;28;20494;-71
2021/12/17 03:44:19;;;;;;;49.50;32.37;;;11.00;99.90;;;;;;5113650;28;20526;-71
2021/12/17 03:46:46;;;;;;;43.97;27.90;;;11.00;99.90;;;;;;5113569;28;20450;-71
2021/12/17 03:49:14;;;;;;;41.60;28.23;;;11.00;99.90;;;;;;5113531;28;20439;-69
2021/12/17 03:51:50;;;;;;;43.70;28.27;;;11.00;99.90;;;;;;5113485;28;20467;-69
2021/12/17 03:54:17;;;;;;;44.17;30.30;;;11.00;99.90;;;;;;5113569;28;20513;-69
2021/12/17 03:56:44;;;;;;;48.83;31.10;;;11.00;99.90;;;;;;5113481;28;20443;-69
2021/12/17 03:59:12;;;;;;;50.70;31.27;;;11.00;99.90;;;;;;5113574;28;20455;-69
2021/12/17 04:01:40;;;;;;;48.40;32.27;;;11.00;99.90;;;;;;5113827;28;20467;-69
2021/12/17 04:04:07;;;;;;;38.27;28.63;;;11.00;99.90;;;;;;5113518;28;20452;-69
2021/12/17 04:06:34;;;;;;;38.60;27.23;;;11.00;99.90;;;;;;5114468;28;20454;-69
2021/12/17 04:09:01;;;;;;;49.07;32.73;;;11.00;99.90;;;;;;5116854;28;20427;-69
2021/12/17 04:11:30;;;;;;;44.47;30.07;;;11.00;99.90;;;;;;5116782;28;20919;-69
2021/12/17 04:13:57;;;;;;;45.67;29.07;;;11.00;99.90;;;;;;5116667;28;20951;-69
2021/12/17 04:16:29;;;;;;;41.10;30.13;;;11.00;99.90;;;;;;5116965;27;20431;-69
2021/12/17 04:18:57;;;;;;;42.30;29.93;;;11.00;99.90;;;;;;5116973;28;20563;-69
2021/12/17 04:21:23;;;;;;;51.87;32.90;;;11.00;99.90;;;;;;5116784;28;20537;-69
2021/12/17 04:23:52;;;;;;;52.00;31.70;;;11.00;99.90;;;;;;5116729;28;20474;-69
2021/12/17 04:26:21;;;;;;;51.93;33.70;;;11.00;99.90;;;;;;5116800;28;20431;-69
2021/12/17 04:28:50;;;;;;;54.20;32.60;;;11.00;99.90;;;;;;5116760;28;20963;-69
2021/12/17 04:31:19;;;;;;;46.20;30.03;;;11.00;99.90;;;;;;5116583;28;20467;-69
2021/12/17 04:33:48;;;;;;;47.37;30.60;;;11.00;99.90;;;;;;5116628;28;20443;-69
2021/12/17 04:36:22;;;;;;;50.63;30.80;;;11.00;99.90;;;;;;5116574;27;20521;-69
2021/12/17 04:38:50;;;;;;;48.83;29.50;;;11.00;99.90;;;;;;5116605;27;20790;-69
2021/12/17 04:44:08;;;;;;;49.60;31.30;;;11.00;99.90;;;;;;5116652;28;20585;-69
2021/12/17 04:46:39;;;;;;;54.43;34.53;;;11.00;99.90;;;;;;5116451;27;20427;-69
2021/12/17 04:57:28;;;;;;;59.37;34.93;;;11.00;99.90;;;;;;5116267;28;20888;-69
2021/12/17 04:59:58;;;;;;;58.50;34.00;;;11.00;99.90;;;;;;5116275;28;20446;-69
2021/12/17 05:02:25;;;;;;;53.47;35.57;;;11.00;99.90;;;;;;5116047;28;20486;-69
2021/12/17 05:04:54;;;;;;;59.17;34.70;;;11.00;99.90;;;;;;5116056;28;20550;-69
2021/12/17 05:07:23;;;;;;;60.53;38.03;;;11.00;99.90;;;;;;5116160;28;20449;-69
2021/12/17 05:09:56;;;;;;;53.37;33.73;;;10.90;99.90;;;;;;5116727;28;20508;-69
2021/12/17 05:20:45;;;;;;;57.07;35.73;;;11.00;99.90;;;;;;5115878;28;20399;-69
2021/12/17 05:23:12;;;;;;;52.77;31.17;;;10.90;99.90;;;;;;5115834;28;20487;-69
2021/12/17 05:25:38;;;;;;;56.87;34.40;;;11.00;99.90;;;;;;5115343;28;20442;-69
2021/12/17 05:28:06;;;;;;;55.50;34.23;;;11.00;99.90;;;;;;5115298;28;20810;-68
2021/12/17 05:34:00;;;;;;;60.00;35.37;;;11.00;99.90;;;;;;5105859;27;20453;-69
2021/12/17 05:37:31;;;;;;;65.67;35.57;;;11.00;99.90;;;;;;5115116;28;20523;-68
2021/12/17 05:39:59;;;;;;;57.57;36.10;;;11.00;99.90;;;;;;5115156;28;20479;-68
2021/12/17 05:42:25;;;;;;;54.70;34.10;;;11.00;99.90;;;;;;5115194;28;20479;-68
2021/12/17 05:44:56;;;;;;;59.77;37.40;;;11.00;99.90;;;;;;5115237;27;20443;-68
2021/12/17 05:47:23;;;;;;;59.53;36.47;;;11.00;99.90;;;;;;5115259;28;20470;-69
2021/12/17 05:49:49;;;;;;;61.23;35.37;;;11.00;99.90;;;;;;5115124;28;20447;-69
2021/12/17 05:52:18;;;;;;;58.83;36.40;;;11.00;99.90;;;;;;5114986;28;20473;-68
2021/12/17 05:54:44;;;;;;;50.50;34.07;;;11.00;99.90;;;;;;5115078;28;20454;-68
2021/12/17 05:57:11;;;;;;;71.13;37.20;;;11.00;99.90;;;;;;5115332;28;20454;-69
2021/12/17 05:59:38;;;;;;;55.80;34.53;;;11.00;99.90;;;;;;5114538;28;20466;-69
2021/12/17 06:02:11;;;;;;;55.60;34.07;;;11.00;99.90;;;;;;5115026;28;20474;-69
2021/12/17 06:04:38;;;;;;;59.33;36.13;;;10.90;99.90;;;;;;5115713;28;20446;-69
2021/12/17 06:07:05;;;;;;;54.63;32.97;;;11.00;99.90;;;;;;5114823;27;20447;-69
2021/12/17 06:09:33;;;;;;;56.20;33.17;;;10.90;99.90;;;;;;5114478;28;20945;-69
2021/12/17 06:12:00;;;;;;;53.80;34.13;;;10.90;99.90;;;;;;5114823;28;20466;-69
2021/12/17 06:14:27;;;;;;;62.77;37.03;;;10.90;99.90;;;;;;5114638;28;20438;-69
2021/12/17 06:16:53;;;;;;;59.97;33.97;;;10.90;99.90;;;;;;5114321;28;20439;-69
2021/12/17 06:19:20;;;;;;;56.83;35.10;;;10.90;99.90;;;;;;5114248;28;20978;-69
2021/12/17 06:21:48;;;;;;;55.50;32.23;;;10.90;99.90;;;;;;5114180;28;20978;-69
2021/12/17 06:24:14;;;;;;;51.20;33.43;;;10.90;99.90;;;;;;5114474;28;20494;-69
2021/12/17 06:26:42;;;;;;;57.90;32.67;;;10.90;99.90;;;;;;5114485;27;20455;-69
2021/12/17 06:29:09;;;;;;;57.33;34.30;;;10.90;99.90;;;;;;5114016;28;20451;-69
2021/12/17 06:31:36;;;;;;;63.77;34.17;;;10.90;99.90;;;;;;5114286;28;20469;-69
2021/12/17 06:34:03;;;;;;;61.07;33.77;;;10.90;99.90;;;;;;5114026;28;20784;-69
2021/12/17 06:36:29;;;;;;;57.20;33.47;;;10.90;99.90;;;;;;5114342;28;20454;-69
2021/12/17 06:38:56;;;;;;;67.03;34.53;;;10.90;99.90;;;;;;5113865;28;20447;-69
2021/12/17 06:41:23;;;;;;;53.33;32.60;;;10.80;99.90;;;;;;5114192;28;20499;-69
2021/12/17 06:43:51;;;;;;;54.30;32.70;;;10.90;99.90;;;;;;5114946;28;20482;-69
2021/12/17 06:46:25;;;;;;;57.80;32.80;;;10.90;99.90;;;;;;5114096;28;20431;-69
2021/12/17 06:48:58;;;;;;;53.20;32.70;;;10.80;99.90;;;;;;5114038;28;20439;-69
2021/12/17 06:59:57;;;;;;;53.90;31.57;;;10.80;99.90;;;;;;5113702;28;20462;-68
2021/12/17 07:09:00;;;;;;;52.63;30.70;;;10.80;99.90;;;;;;5114112;28;20892;-68
2021/12/17 07:11:00;;;;;;;55.93;31.70;;;10.80;99.90;;;;;;5113545;28;20514;-69
2021/12/17 07:21:55;;;;;;;51.60;29.60;;;10.60;99.90;;;;;;5113781;28;20442;-70
2021/12/17 07:33:07;;;;;;;60.03;30.40;;;10.60;99.90;;;;;;5113720;28;20446;-70
2021/12/17 07:35:42;;;;;;;62.33;29.20;;;10.70;99.90;;;;;;5113871;28;20431;-70
2021/12/17 07:40:54;;;;;;;60.20;30.80;;;10.60;99.90;;;;;;5114222;28;20418;-69
2021/12/17 07:43:34;;;;;;;62.53;32.27;;;10.60;99.90;;;;;;5117439;28;20483;-69
2021/12/17 07:46:01;;;;;;;63.80;29.30;;;10.70;99.90;;;;;;5117308;28;20909;-69
2021/12/17 07:48:29;;;;;;;53.00;31.43;;;10.60;99.90;;;;;;5117546;28;20447;-69
2021/12/17 07:50:56;;;;;;;71.40;33.93;;;10.60;99.90;;;;;;5117225;28;20963;-69
2021/12/17 07:53:23;;;;;;;68.70;33.80;;;10.60;99.90;;;;;;5117682;28;20459;-70
2021/12/17 07:55:50;;;;;;;66.73;33.87;;;10.60;99.90;;;;;;5117333;28;20442;-69
2021/12/17 07:58:17;;;;;;;65.50;34.60;;;10.60;99.90;;;;;;5116941;28;20940;-69
2021/12/17 08:00:44;;;;;;;65.87;35.40;;;10.60;99.90;;;;;;5117373;28;20441;-69
2021/12/17 08:03:12;;;;;;;60.07;30.17;;;10.60;99.90;;;;;;5117196;28;20478;-70
2021/12/17 08:05:42;;;;;;;73.07;32.17;;;10.60;99.90;;;;;;5117177;28;20541;-69
2021/12/17 08:08:09;;;;;;;57.37;28.73;;;10.50;99.90;;;;;;5116950;27;20909;-69
2021/12/17 08:10:36;;;;;;;69.40;32.83;;;10.50;99.90;;;;;;5117177;28;20449;-69
2021/12/17 08:13:05;;;;;;;59.50;30.70;;;10.50;99.90;;;;;;5117894;28;20515;-69
2021/12/17 08:15:38;;;;;;;67.43;36.53;;;10.60;99.90;;;;;;5118431;28;20511;-69
2021/12/17 08:24:36;;;;;;;57.13;28.63;;;10.70;99.90;;;;;;5116957;28;20453;-69
2021/12/17 08:27:09;;;;;;;61.20;33.53;;;10.70;99.90;;;;;;5116426;28;20532;-69
2021/12/17 08:29:53;;;;;;;60.67;32.03;;;10.70;99.90;;;;;;5116716;28;20449;-69
2021/12/17 08:32:20;;;;;;;51.13;28.37;;;10.70;99.90;;;;;;5116603;28;20873;-69
2021/12/17 08:34:47;;;;;;;56.63;32.47;;;10.70;99.90;;;;;;5116414;28;20897;-69
2021/12/17 08:37:15;;;;;;;56.43;28.13;;;10.80;99.90;;;;;;5116634;28;20446;-69
2021/12/17 08:39:42;;;;;;;57.43;30.90;;;10.70;99.90;;;;;;5116524;28;20449;-69
2021/12/17 08:42:09;;;;;;;50.83;26.90;;;10.80;99.90;;;;;;5116124;28;20537;-69
2021/12/17 08:44:35;;;;;;;47.83;25.20;;;10.80;99.90;;;;;;5116429;28;20497;-69
2021/12/17 08:47:02;;;;;;;49.93;27.23;;;10.80;99.90;;;;;;5116431;28;20447;-69
2021/12/17 08:49:29;;;;;;;53.50;27.90;;;10.80;99.90;;;;;;5116445;28;20450;-69
2021/12/17 08:51:56;;;;;;;62.70;33.37;;;10.80;99.90;;;;;;5116003;28;20469;-70
2021/12/17 08:54:24;;;;;;;49.60;28.20;;;10.80;99.90;;;;;;5116330;28;20446;-70
2021/12/17 08:56:50;;;;;;;48.60;29.57;;;10.90;99.90;;;;;;5116285;28;20431;-70
2021/12/17 08:59:18;;;;;;;71.20;39.20;;;10.80;99.90;;;;;;5115832;27;20459;-69
2021/12/17 09:01:45;;;;;;;68.60;32.00;;;10.90;99.90;;;;;;5116057;28;20465;-70
2021/12/17 09:04:13;;;;;;;57.07;28.90;;;10.90;99.90;;;;;;5116048;28;20478;-70
2021/12/17 09:06:39;;;;;;;59.10;28.37;;;10.90;99.90;;;;;;5116086;28;20451;-70
2021/12/17 09:09:07;;;;;;;56.43;31.17;;;10.90;99.90;;;;;;5116123;28;20449;-69
2021/12/17 09:11:35;;;;;;;55.50;28.97;;;10.90;99.90;;;;;;5115566;28;20968;-70
2021/12/17 09:14:04;;;;;;;55.73;29.23;;;10.90;99.90;;;;;;5116280;28;20457;-69
2021/12/17 09:16:31;;;;;;;57.60;25.73;;;10.90;99.90;;;;;;5115985;28;20537;-69
2021/12/17 09:18:58;;;;;;;67.33;28.27;;;11.00;99.90;;;;;;5115990;28;20450;-70
2021/12/17 09:21:25;;;;;;;57.63;26.30;;;10.90;99.90;;;;;;5115752;28;20467;-70
2021/12/17 09:23:52;;;;;;;57.27;26.57;;;10.90;99.90;;;;;;5115887;28;20486;-70
2021/12/17 09:26:19;;;;;;;58.17;26.93;;;10.90;99.90;;;;;;5116002;27;20447;-71
2021/12/17 09:28:47;;;;;;;57.73;24.30;;;10.90;99.90;;;;;;5115676;28;20443;-70
2021/12/17 09:31:14;;;;;;;55.47;24.60;;;10.90;99.90;;;;;;5115232;28;20454;-71
2021/12/17 09:33:41;;;;;;;57.40;25.17;;;10.90;99.90;;;;;;5115579;28;20789;-70
2021/12/17 09:36:08;;;;;;;54.17;25.27;;;11.00;99.90;;;;;;5115476;28;20447;-71
2021/12/17 09:38:35;;;;;;;58.00;26.63;;;10.90;99.90;;;;;;5115406;28;20442;-70
2021/12/17 09:41:03;;;;;;;54.60;23.97;;;11.00;99.90;;;;;;5115271;27;20451;-69
2021/12/17 09:43:30;;;;;;;65.23;26.60;;;10.90;99.90;;;;;;5114972;28;20995;-68
2021/12/17 09:45:59;;;;;;;55.80;23.93;;;11.00;99.90;;;;;;5114907;28;20812;-68
2021/12/17 09:48:26;;;;;;;55.73;24.77;;;11.00;99.90;;;;;;5114961;28;20449;-69
2021/12/17 09:50:54;;;;;;;63.80;26.40;;;11.00;99.90;;;;;;5115260;28;20403;-69
2021/12/17 09:53:21;;;;;;;61.77;26.80;;;11.00;99.90;;;;;;5115045;28;20474;-69
2021/12/17 09:55:49;;;;;;;57.30;25.23;;;11.00;99.90;;;;;;5115350;28;20442;-69
2021/12/17 09:58:17;;;;;;;56.87;25.27;;;11.00;99.90;;;;;;5114928;28;20503;-69
2021/12/17 10:00:44;;;;;;;58.73;24.27;;;11.00;99.90;;;;;;5115021;28;20438;-69
2021/12/17 10:03:12;;;;;;;58.00;25.47;;;11.10;99.90;;;;;;5114894;28;20471;-69
2021/12/17 10:05:41;;;;;;;55.93;25.37;;;11.10;99.90;;;;;;5114186;28;20471;-69
2021/12/17 10:08:12;;;;;;;51.10;24.73;;;11.10;99.90;;;;;;5114862;27;20454;-69
2021/12/17 10:10:42;;;;;;;43.57;21.93;;;11.10;99.90;;;;;;5114835;28;20431;-69
2021/12/17 10:13:12;;;;;;;63.33;24.43;;;11.10;99.90;;;;;;5114769;28;20472;-69
2021/12/17 10:15:41;;;;;;;60.60;24.83;;;11.10;99.90;;;;;;5114723;28;20431;-69
2021/12/17 10:18:08;;;;;;;61.70;23.93;;;11.10;99.90;;;;;;5114429;28;20447;-69
2021/12/17 10:20:42;;;;;;;50.03;22.20;;;11.10;99.90;;;;;;5114299;28;20451;-69
2021/12/17 10:23:11;;;;;;;62.57;23.70;;;11.10;99.90;;;;;;5114535;28;20467;-69
2021/12/17 10:25:43;;;;;;;57.10;22.77;;;11.20;99.90;;;;;;5114413;28;20497;-69
2021/12/17 10:28:11;;;;;;;46.60;21.90;;;11.20;99.90;;;;;;5114550;28;20431;-69
2021/12/17 10:30:40;;;;;;;52.00;21.87;;;11.20;99.90;;;;;;5114385;28;20446;-69
2021/12/17 10:33:08;;;;;;;51.70;23.60;;;11.20;99.90;;;;;;5114089;28;20467;-69
2021/12/17 10:35:39;;;;;;;48.80;23.80;;;11.20;99.90;;;;;;5114385;28;20439;-69
2021/12/17 10:38:11;;;;;;;46.30;21.30;;;11.20;99.90;;;;;;5114664;28;20435;-69
2021/12/17 10:40:44;;;;;;;57.83;25.37;;;11.20;99.90;;;;;;5114326;28;20431;-69
2021/12/17 10:43:16;;;;;;;50.87;23.03;;;11.30;99.90;;;;;;5114221;28;20824;-69
2021/12/17 10:45:57;;;;;;;46.57;21.53;;;11.30;99.90;;;;;;5114197;28;20463;-69
2021/12/17 10:48:27;;;;;;;54.47;23.50;;;11.30;99.90;;;;;;5114195;28;20438;-69
2021/12/17 10:51:15;;;;;;;55.20;24.83;;;11.30;99.90;;;;;;5114239;28;20435;-69
2021/12/17 10:53:46;;;;;;;56.33;24.43;;;11.30;99.90;;;;;;5114150;28;20462;-69
2021/12/17 10:56:16;;;;;;;61.97;25.57;;;11.30;99.90;;;;;;5113804;28;20977;-69
2021/12/17 10:58:57;;;;;;;55.03;25.40;;;11.30;99.90;;;;;;5113958;28;20489;-69
2021/12/17 11:01:33;;;;;;;66.63;26.67;;;11.30;99.90;;;;;;5113958;28;20469;-69
2021/12/17 11:04:08;;;;;;;54.33;25.67;;;11.30;99.90;;;;;;5113929;28;20462;-69
2021/12/17 11:06:44;;;;;;;53.13;23.87;;;11.30;99.90;;;;;;5113711;28;20892;-69
2021/12/17 11:09:11;;;;;;;59.10;26.40;;;11.30;99.90;;;;;;5113998;28;20453;-69
2021/12/17 11:11:42;;;;;;;57.03;24.33;;;11.30;99.90;;;;;;5113985;28;20473;-68
2021/12/17 11:14:09;;;;;;;54.40;25.50;;;11.30;99.90;;;;;;5113806;28;20431;-68
2021/12/17 11:16:38;;;;;;;56.30;25.60;;;11.20;99.90;;;;;;5117342;28;20450;-68
2021/12/17 11:19:05;;;;;;;62.77;27.97;;;11.20;99.90;;;;;;5118646;28;20462;-69
2021/12/17 11:21:33;;;;;;;64.20;26.83;;;11.30;99.90;;;;;;5118755;28;20470;-69
2021/12/17 11:24:01;;;;;;;60.83;26.73;;;11.30;99.90;;;;;;5118264;28;20497;-68
2021/12/17 11:26:29;;;;;;;60.87;26.40;;;11.30;99.90;;;;;;5118040;27;20537;-68
2021/12/17 11:29:03;;;;;;;65.07;28.57;;;11.30;99.90;;;;;;5118072;28;20521;-69
2021/12/17 11:31:31;;;;;;;66.60;28.17;;;11.30;99.90;;;;;;5117648;28;21043;-69
2021/12/17 11:34:01;;;;;;;65.67;29.37;;;11.30;99.90;;;;;;5117982;28;20507;-74
2021/12/17 11:36:29;;;;;;;71.77;28.97;;;11.30;99.90;;;;;;5118093;28;20447;-72
2021/12/17 11:39:03;;;;;;;54.40;25.90;;;11.30;99.90;;;;;;5117896;28;20446;-72
2021/12/17 11:41:41;;;;;;;67.77;28.97;;;11.30;99.90;;;;;;5117824;28;20469;-73
2021/12/17 11:44:09;;;;;;;55.00;26.47;;;11.30;99.90;;;;;;5118113;28;20466;-72
2021/12/17 11:46:36;;;;;;;57.77;27.27;;;11.30;99.90;;;;;;5117643;28;20876;-73
2021/12/17 11:49:07;;;;;;;65.43;28.00;;;11.30;99.90;;;;;;5117662;28;20472;-73
2021/12/17 11:51:36;;;;;;;71.03;30.60;;;11.30;99.90;;;;;;5117809;28;20500;-73
2021/12/17 11:54:07;;;;;;;73.27;31.50;;;11.30;99.90;;;;;;5117568;27;20447;-73
2021/12/17 11:56:38;;;;;;;62.57;30.47;;;11.30;99.90;;;;;;5117081;28;20919;-73
2021/12/17 11:59:06;;;;;;;66.07;30.50;;;11.30;99.90;;;;;;5117213;28;20458;-72
2021/12/17 12:01:55;;;;;;;62.73;29.47;;;11.30;99.90;;;;;;5117660;28;20467;-73
2021/12/17 12:04:24;;;;;;;65.03;30.13;;;11.30;99.90;;;;;;5117340;28;20490;-73
2021/12/17 12:07:00;;;;;;;73.77;32.60;;;11.30;99.90;;;;;;5117467;27;20431;-73
2021/12/17 12:09:55;;;;;;;61.00;29.20;;;11.30;99.90;;;;;;5117190;28;20489;-73
2021/12/17 12:12:23;;;;;;;74.73;33.83;;;11.30;99.90;;;;;;5117270;28;20471;-74
2021/12/17 12:14:49;;;;;;;65.87;30.20;;;11.30;99.90;;;;;;5117112;28;20861;-73
2021/12/17 12:18:03;;;;;;;79.93;35.97;;;11.30;99.90;;;;;;5117064;28;20454;-73
2021/12/17 12:20:50;;;;;;;67.63;31.90;;;11.30;99.90;;;;;;5116816;27;20900;-73
2021/12/17 12:23:19;;;;;;;66.67;30.33;;;11.30;99.90;;;;;;5117207;28;20454;-73
2021/12/17 12:26:11;;;;;;;70.63;32.40;;;11.30;99.90;;;;;;5116930;28;20462;-73
2021/12/17 12:28:53;;;;;;;64.80;33.33;;;11.30;99.90;;;;;;5116215;28;20429;-73
2021/12/17 12:31:47;;;;;;;62.47;29.60;;;11.30;99.90;;;;;;5116818;27;20474;-74
2021/12/17 12:34:15;;;;;;;69.63;30.80;;;11.30;99.90;;;;;;5117038;28;20451;-73
2021/12/17 12:36:50;;;;;;;57.73;28.93;;;11.30;99.90;;;;;;5116860;28;20447;-73
2021/12/17 12:39:18;;;;;;;59.27;31.40;;;11.30;99.90;;;;;;5116747;28;20430;-73
2021/12/17 12:41:48;;;;;;;72.63;37.50;;;11.30;99.90;;;;;;5116553;28;20459;-73
2021/12/17 12:44:15;;;;;;;79.07;40.77;;;11.30;99.90;;;;;;5117474;28;20451;-73
2021/12/17 12:46:54;;;;;;;68.63;33.40;;;11.40;99.90;;;;;;5117224;28;20458;-77
2021/12/17 12:49:44;;;;;;;64.93;31.10;;;11.40;99.90;;;;;;5116857;28;20430;-76
2021/12/17 12:52:24;;;;;;;61.50;30.93;;;11.40;99.90;;;;;;5116212;28;20527;-76
2021/12/17 12:54:52;;;;;;;65.83;30.90;;;11.40;99.90;;;;;;5116356;28;20792;-76
2021/12/17 12:57:26;;;;;;;64.60;34.03;;;11.40;99.90;;;;;;5116422;28;20804;-76
2021/12/17 12:59:54;;;;;;;61.47;30.60;;;11.40;99.90;;;;;;5116063;28;20465;-76
2021/12/17 13:02:21;;;;;;;59.73;31.23;;;11.40;99.90;;;;;;5116048;28;20443;-76
2021/12/17 13:04:48;;;;;;;79.27;41.97;;;11.40;99.90;;;;;;5116122;28;20482;-76
2021/12/17 13:07:15;;;;;;;57.23;31.77;;;11.40;99.90;;;;;;5116161;28;20859;-76
2021/12/17 13:09:43;;;;;;;67.27;32.90;;;11.40;99.90;;;;;;5116062;28;20458;-76
2021/12/17 13:12:11;;;;;;;73.53;34.20;;;11.40;99.90;;;;;;5116182;28;20549;-76
2021/12/17 13:14:44;;;;;;;59.57;31.50;;;11.40;99.90;;;;;;5116002;28;20447;-76
2021/12/17 13:17:39;;;;;;;72.43;33.40;;;11.40;99.90;;;;;;5115985;28;20500;-76
2021/12/17 13:20:40;;;;;;;;;;;;;;;;;;;;;
2021/12/17 13:23:13;;;;;;;59.70;32.23;;;11.40;99.90;;;;;;5113923;28;20487;-76
2021/12/17 13:25:39;;;;;;;71.00;33.63;;;11.40;99.90;;;;;;5115707;28;20502;-76
2021/12/17 13:28:06;;;;;;;60.63;32.33;;;11.50;99.90;;;;;;5115643;28;20439;-76
2021/12/17 13:30:34;;;;;;;59.90;32.57;;;11.40;99.90;;;;;;5115385;28;20900;-76
2021/12/17 13:33:01;;;;;;;65.43;35.53;;;11.40;99.90;;;;;;5115321;28;20470;-76
2021/12/17 13:35:33;;;;;;;69.60;34.30;;;11.50;99.90;;;;;;5115506;28;20446;-76
2021/12/17 13:38:01;;;;;;;71.00;34.50;;;11.40;99.90;;;;;;5115459;28;20442;-76
2021/12/17 13:40:28;;;;;;;58.60;32.30;;;11.40;99.90;;;;;;5114614;28;20866;-76
2021/12/17 13:42:55;;;;;;;53.30;30.50;;;11.40;99.90;;;;;;5115535;28;20823;-76
2021/12/17 13:45:23;;;;;;;57.83;31.03;;;11.40;99.90;;;;;;5115099;28;20843;-76
2021/12/17 13:47:54;;;;;;;57.80;30.00;;;11.50;99.90;;;;;;5115371;28;20454;-76
2021/12/17 13:50:23;;;;;;;59.10;31.37;;;11.50;99.90;;;;;;5115244;28;20908;-76
2021/12/17 13:52:53;;;;;;;50.17;28.87;;;11.40;99.90;;;;;;5115253;28;20467;-76
2021/12/17 13:55:22;;;;;;;51.97;30.40;;;11.40;99.90;;;;;;5116019;28;20451;-76
2021/12/17 13:57:50;;;;;;;50.43;29.03;;;11.40;99.90;;;;;;5116124;28;20439;-76
2021/12/17 14:00:20;;;;;;;48.13;28.00;;;11.40;99.90;;;;;;5115488;28;20455;-76
2021/12/17 14:02:50;;;;;;;55.23;30.57;;;11.50;99.90;;;;;;5115878;28;20975;-76
2021/12/17 14:05:25;;;;;;;49.27;31.30;;;11.50;99.90;;;;;;5115582;28;20478;-76
2021/12/17 14:07:53;;;;;;;50.50;28.13;;;11.50;99.90;;;;;;5115122;28;20481;-76
2021/12/17 14:10:22;;;;;;;52.20;30.47;;;11.50;99.90;;;;;;5115498;28;20447;-76
2021/12/17 14:12:49;;;;;;;51.20;29.77;;;11.50;99.90;;;;;;5115300;28;20455;-78
2021/12/17 14:15:19;;;;;;;44.47;27.40;;;11.50;99.90;;;;;;5115438;28;20426;-77
2021/12/17 14:17:49;;;;;;;45.70;28.93;;;11.50;99.90;;;;;;5115372;28;20525;-76
2021/12/17 14:20:19;;;;;;;52.53;30.40;;;11.60;99.90;;;;;;5115696;28;20469;-76
2021/12/17 14:22:47;;;;;;;40.93;26.00;;;11.60;99.90;;;;;;5115867;28;20459;-76
2021/12/17 14:25:26;;;;;;;43.87;25.30;;;11.60;99.90;;;;;;5117957;28;20485;-76
2021/12/17 14:27:53;;;;;;;48.87;28.17;;;11.60;99.90;;;;;;5117074;28;20449;-76
2021/12/17 14:30:24;;;;;;;42.63;28.03;;;11.60;99.90;;;;;;5115492;28;20450;-76
2021/12/17 14:32:51;;;;;;;41.63;26.53;;;11.60;99.90;;;;;;5114720;28;20462;-76
2021/12/17 14:35:41;;;;;;;42.27;28.57;;;11.60;99.90;;;;;;5114750;28;20446;-76
2021/12/17 14:38:07;;;;;;;40.00;27.10;;;11.60;99.90;;;;;;5114644;28;20436;-76
2021/12/17 14:40:41;;;;;;;40.73;27.10;;;11.50;99.90;;;;;;5114741;28;20450;-76
2021/12/17 14:43:23;;;;;;;41.27;27.50;;;11.50;99.90;;;;;;5115132;28;20506;-76
2021/12/17 14:46:00;;;;;;;40.70;27.70;;;11.50;99.90;;;;;;5115669;28;20467;-76
2021/12/17 14:48:36;;;;;;;39.33;26.53;;;11.50;99.90;;;;;;5114380;28;20513;-76
2021/12/17 15:02:39;;;;;;;40.43;24.07;;;11.50;99.90;;;;;;5113684;28;20968;-76
2021/12/17 15:05:08;;;;;;;33.10;24.43;;;11.40;99.90;;;;;;5113902;28;20467;-76
2021/12/17 15:07:36;;;;;;;34.03;24.60;;;11.40;99.90;;;;;;5114094;28;20443;-76
2021/12/17 15:10:04;;;;;;;34.70;22.63;;;11.40;99.90;;;;;;5114031;28;20443;-76
2021/12/17 15:12:38;;;;;;;35.80;24.10;;;11.40;99.90;;;;;;5113682;28;21071;-76